sensor_id;sensor_type;location;lat;lon;timestamp;pressure;altitude;pressure_sealevel;temperature;humidity
49611;BME280;35515;48.766;9.176;2022-09-03T00:01:10;97949.78;;;18.23;55.73
49611;BME280;35515;48.766;9.176;2022-09-03T00:03:43;97949.22;;;18.15;56.16
49611;BME280;35515;48.766;9.176;2022-09-03T00:06:19;97945.41;;;18.27;56.04
49611;BME280;35515;48.766;9.176;2022-09-03T00:08:50;97943.69;;;18.05;56.60
49611;BME280;35515;48.766;9.176;2022-09-03T00:11:23;97942.63;;;18.16;56.55
49611;BME280;35515;48.766;9.176;2022-09-03T00:13:58;97945.84;;;17.98;57.02
49611;BME280;35515;48.766;9.176;2022-09-03T00:16:33;97940.69;;;18.07;56.63
49611;BME280;35515;48.766;9.176;2022-09-03T00:19:03;97939.88;;;18.11;56.68
49611;BME280;35515;48.766;9.176;2022-09-03T00:21:36;97939.91;;;18.21;55.98
49611;BME280;35515;48.766;9.176;2022-09-03T00:24:05;97934.94;;;18.08;56.49
49611;BME280;35515;48.766;9.176;2022-09-03T00:26:34;97939.34;;;18.14;56.25
49611;BME280;35515;48.766;9.176;2022-09-03T00:29:08;97942.84;;;17.99;56.84
49611;BME280;35515;48.766;9.176;2022-09-03T00:31:39;97928.88;;;18.01;56.65
49611;BME280;35515;48.766;9.176;2022-09-03T00:34:11;97928.34;;;18.04;57.16
49611;BME280;35515;48.766;9.176;2022-09-03T00:36:43;97927.53;;;18.09;56.44
49611;BME280;35515;48.766;9.176;2022-09-03T00:39:12;97944.22;;;17.97;57.00
49611;BME280;35515;48.766;9.176;2022-09-03T00:41:47;97939.31;;;18.09;56.58
49611;BME280;35515;48.766;9.176;2022-09-03T00:44:44;97930.25;;;18.09;56.93
49611;BME280;35515;48.766;9.176;2022-09-03T00:47:20;97932.75;;;18.10;57.05
49611;BME280;35515;48.766;9.176;2022-09-03T00:50:00;97933.00;;;18.09;57.44
49611;BME280;35515;48.766;9.176;2022-09-03T00:52:39;97930.56;;;18.12;57.11
49611;BME280;35515;48.766;9.176;2022-09-03T00:55:15;97926.16;;;18.11;57.41
49611;BME280;35515;48.766;9.176;2022-09-03T00:57:56;97926.16;;;18.11;57.49
49611;BME280;35515;48.766;9.176;2022-09-03T01:00:28;97929.53;;;18.29;56.98
49611;BME280;35515;48.766;9.176;2022-09-03T01:03:04;97946.50;;;18.15;57.66
49611;BME280;35515;48.766;9.176;2022-09-03T01:05:41;97933.88;;;18.25;57.11
49611;BME280;35515;48.766;9.176;2022-09-03T01:08:24;97934.63;;;18.04;58.00
49611;BME280;35515;48.766;9.176;2022-09-03T01:11:01;97934.38;;;18.01;57.98
49611;BME280;35515;48.766;9.176;2022-09-03T01:13:39;97927.25;;;18.05;57.55
49611;BME280;35515;48.766;9.176;2022-09-03T01:16:12;97938.47;;;18.09;58.08
49611;BME280;35515;48.766;9.176;2022-09-03T01:18:47;97937.94;;;18.07;58.41
49611;BME280;35515;48.766;9.176;2022-09-03T01:21:29;97933.25;;;17.97;58.87
49611;BME280;35515;48.766;9.176;2022-09-03T01:24:26;97937.97;;;18.12;57.79
49611;BME280;35515;48.766;9.176;2022-09-03T01:27:17;97930.03;;;18.15;58.16
49611;BME280;35515;48.766;9.176;2022-09-03T01:29:56;97934.38;;;18.11;58.01
49611;BME280;35515;48.766;9.176;2022-09-03T01:32:29;97931.09;;;18.09;58.10
49611;BME280;35515;48.766;9.176;2022-09-03T01:35:03;97924.53;;;18.10;58.45
49611;BME280;35515;48.766;9.176;2022-09-03T01:37:43;97927.53;;;18.14;57.75
49611;BME280;35515;48.766;9.176;2022-09-03T01:40:18;97935.50;;;18.10;58.17
49611;BME280;35515;48.766;9.176;2022-09-03T01:43:00;97939.34;;;18.14;58.08
49611;BME280;35515;48.766;9.176;2022-09-03T01:45:36;97932.75;;;18.10;58.37
49611;BME280;35515;48.766;9.176;2022-09-03T01:48:20;97939.91;;;18.21;57.71
49611;BME280;35515;48.766;9.176;2022-09-03T01:50:54;97947.59;;;18.19;57.47
49611;BME280;35515;48.766;9.176;2022-09-03T01:53:36;97941.03;;;18.26;57.42
49611;BME280;35515;48.766;9.176;2022-09-03T01:56:18;97941.53;;;18.12;57.58
49611;BME280;35515;48.766;9.176;2022-09-03T01:58:53;97939.88;;;18.11;57.58
49611;BME280;35515;48.766;9.176;2022-09-03T02:01:30;97937.72;;;18.18;57.50
49611;BME280;35515;48.766;9.176;2022-09-03T02:03:57;97935.78;;;18.19;57.70
49611;BME280;35515;48.766;9.176;2022-09-03T02:06:24;97938.25;;;18.15;57.24
49611;BME280;35515;48.766;9.176;2022-09-03T02:08:51;97943.50;;;18.22;56.95
49611;BME280;35515;48.766;9.176;2022-09-03T02:11:18;97948.97;;;18.27;56.69
49611;BME280;35515;48.766;9.176;2022-09-03T02:13:47;97942.66;;;18.21;57.05
49611;BME280;35515;48.766;9.176;2022-09-03T02:16:18;97945.94;;;18.18;57.49
49611;BME280;35515;48.766;9.176;2022-09-03T02:18:49;97945.97;;;18.24;57.40
49611;BME280;35515;48.766;9.176;2022-09-03T02:21:17;97948.19;;;18.32;56.95
49611;BME280;35515;48.766;9.176;2022-09-03T02:23:44;97954.47;;;18.22;57.49
49611;BME280;35515;48.766;9.176;2022-09-03T02:26:12;97953.06;;;18.14;57.80
49611;BME280;35515;48.766;9.176;2022-09-03T02:28:41;97952.00;;;18.26;57.28
49611;BME280;35515;48.766;9.176;2022-09-03T02:31:08;97952.75;;;18.11;57.86
49611;BME280;35515;48.766;9.176;2022-09-03T02:33:37;97948.09;;;18.11;57.61
49611;BME280;35515;48.766;9.176;2022-09-03T02:36:08;97950.28;;;18.09;57.92
49611;BME280;35515;48.766;9.176;2022-09-03T02:38:35;97948.38;;;18.10;57.47
49611;BME280;35515;48.766;9.176;2022-09-03T02:41:01;97948.38;;;18.10;57.43
49611;BME280;35515;48.766;9.176;2022-09-03T02:43:33;97951.94;;;18.10;57.73
49611;BME280;35515;48.766;9.176;2022-09-03T02:46:04;97952.97;;;17.99;58.32
49611;BME280;35515;48.766;9.176;2022-09-03T02:48:32;97945.03;;;17.97;58.54
49611;BME280;35515;48.766;9.176;2022-09-03T02:50:59;97936.53;;;17.99;58.50
49611;BME280;35515;48.766;9.176;2022-09-03T02:53:27;97938.47;;;17.98;58.40
49611;BME280;35515;48.766;9.176;2022-09-03T02:55:57;97936.22;;;17.95;58.56
49611;BME280;35515;48.766;9.176;2022-09-03T02:58:24;97939.75;;;17.91;58.62
49611;BME280;35515;48.766;9.176;2022-09-03T03:00:51;97937.06;;;17.96;58.48
49611;BME280;35515;48.766;9.176;2022-09-03T03:03:18;97946.06;;;17.91;59.05
49611;BME280;35515;48.766;9.176;2022-09-03T03:05:48;97943.56;;;17.84;59.07
49611;BME280;35515;48.766;9.176;2022-09-03T03:08:16;97937.22;;;17.79;59.46
49611;BME280;35515;48.766;9.176;2022-09-03T03:10:47;97944.06;;;17.76;59.44
49611;BME280;35515;48.766;9.176;2022-09-03T03:13:16;97939.16;;;17.78;59.45
49611;BME280;35515;48.766;9.176;2022-09-03T03:15:43;97949.31;;;17.83;59.24
49611;BME280;35515;48.766;9.176;2022-09-03T03:18:10;97952.97;;;17.99;59.04
49611;BME280;35515;48.766;9.176;2022-09-03T03:20:38;97948.50;;;17.82;59.89
49611;BME280;35515;48.766;9.176;2022-09-03T03:23:05;97952.31;;;17.81;59.84
49611;BME280;35515;48.766;9.176;2022-09-03T03:25:32;97966.59;;;17.83;59.30
49611;BME280;35515;48.766;9.176;2022-09-03T03:28:01;97959.69;;;17.76;59.81
49611;BME280;35515;48.766;9.176;2022-09-03T03:30:29;97960.19;;;17.72;60.06
49611;BME280;35515;48.766;9.176;2022-09-03T03:32:56;97962.66;;;17.69;60.40
49611;BME280;35515;48.766;9.176;2022-09-03T03:35:23;97961.19;;;17.56;60.70
49611;BME280;35515;48.766;9.176;2022-09-03T03:37:50;97963.69;;;17.58;60.32
49611;BME280;35515;48.766;9.176;2022-09-03T03:40:17;97956.69;;;17.77;59.59
49611;BME280;35515;48.766;9.176;2022-09-03T03:42:44;97958.25;;;17.68;60.21
49611;BME280;35515;48.766;9.176;2022-09-03T03:45:12;97956.78;;;17.50;60.74
49611;BME280;35515;48.766;9.176;2022-09-03T03:47:39;97955.38;;;17.47;60.98
49611;BME280;35515;48.766;9.176;2022-09-03T03:50:06;97963.63;;;17.52;60.88
49611;BME280;35515;48.766;9.176;2022-09-03T03:52:33;97969.41;;;17.56;60.85
49611;BME280;35515;48.766;9.176;2022-09-03T03:54:59;97971.38;;;17.66;60.36
49611;BME280;35515;48.766;9.176;2022-09-03T03:57:29;97974.34;;;17.54;60.81
49611;BME280;35515;48.766;9.176;2022-09-03T03:59:56;97978.06;;;17.80;59.58
49611;BME280;35515;48.766;9.176;2022-09-03T04:02:24;97975.50;;;17.68;59.70
49611;BME280;35515;48.766;9.176;2022-09-03T04:04:50;97967.75;;;17.55;60.32
49611;BME280;35515;48.766;9.176;2022-09-03T04:07:17;97960.16;;;17.62;59.86
49611;BME280;35515;48.766;9.176;2022-09-03T04:09:43;97961.50;;;17.60;60.02
49611;BME280;35515;48.766;9.176;2022-09-03T04:12:11;97962.31;;;17.60;60.06
49611;BME280;35515;48.766;9.176;2022-09-03T04:14:38;97966.91;;;17.49;60.70
49611;BME280;35515;48.766;9.176;2022-09-03T04:17:04;97965.34;;;17.59;60.10
49611;BME280;35515;48.766;9.176;2022-09-03T04:19:32;97967.72;;;17.45;60.96
49611;BME280;35515;48.766;9.176;2022-09-03T04:21:59;97956.44;;;17.41;61.15
49611;BME280;35515;48.766;9.176;2022-09-03T04:24:25;97965.03;;;17.55;60.45
49611;BME280;35515;48.766;9.176;2022-09-03T04:26:52;97969.13;;;17.52;60.47
49611;BME280;35515;48.766;9.176;2022-09-03T04:29:19;97961.13;;;17.46;61.23
49611;BME280;35515;48.766;9.176;2022-09-03T04:31:47;97961.66;;;17.43;60.93
49611;BME280;35515;48.766;9.176;2022-09-03T04:34:27;97961.84;;;17.31;61.56
49611;BME280;35515;48.766;9.176;2022-09-03T04:36:55;97959.78;;;17.48;61.04
49611;BME280;35515;48.766;9.176;2022-09-03T04:39:23;97962.56;;;17.53;60.87
49611;BME280;35515;48.766;9.176;2022-09-03T04:41:49;97967.09;;;17.37;61.34
49611;BME280;35515;48.766;9.176;2022-09-03T04:44:16;97966.41;;;17.20;62.25
49611;BME280;35515;48.766;9.176;2022-09-03T04:46:43;97965.97;;;17.33;61.79
49611;BME280;35515;48.766;9.176;2022-09-03T04:49:12;97954.75;;;17.35;62.05
49611;BME280;35515;48.766;9.176;2022-09-03T04:51:39;97951.53;;;17.43;61.79
49611;BME280;35515;48.766;9.176;2022-09-03T04:54:07;97957.53;;;17.40;61.72
49611;BME280;35515;48.766;9.176;2022-09-03T04:56:35;97960.19;;;17.30;62.06
49611;BME280;35515;48.766;9.176;2022-09-03T04:59:04;97963.41;;;17.21;62.70
49611;BME280;35515;48.766;9.176;2022-09-03T05:01:32;97972.78;;;17.31;62.49
49611;BME280;35515;48.766;9.176;2022-09-03T05:03:59;97968.97;;;17.32;62.54
49611;BME280;35515;48.766;9.176;2022-09-03T05:06:27;97969.06;;;17.47;62.05
49611;BME280;35515;48.766;9.176;2022-09-03T05:08:55;97970.19;;;17.46;62.29
49611;BME280;35515;48.766;9.176;2022-09-03T05:11:24;97964.41;;;17.43;62.46
49611;BME280;35515;48.766;9.176;2022-09-03T05:13:53;97963.81;;;17.41;62.88
49611;BME280;35515;48.766;9.176;2022-09-03T05:16:21;97967.94;;;17.43;62.69
49611;BME280;35515;48.766;9.176;2022-09-03T05:18:51;97966.31;;;17.42;62.92
49611;BME280;35515;48.766;9.176;2022-09-03T05:21:19;97965.25;;;17.48;62.62
49611;BME280;35515;48.766;9.176;2022-09-03T05:23:47;97968.09;;;17.64;61.68
49611;BME280;35515;48.766;9.176;2022-09-03T05:26:16;97961.44;;;17.49;62.66
49611;BME280;35515;48.766;9.176;2022-09-03T05:28:44;97966.94;;;17.54;62.75
49611;BME280;35515;48.766;9.176;2022-09-03T05:31:12;97966.44;;;17.63;62.35
49611;BME280;35515;48.766;9.176;2022-09-03T05:33:41;97972.97;;;17.51;62.85
49611;BME280;35515;48.766;9.176;2022-09-03T05:36:09;97972.50;;;17.65;62.54
49611;BME280;35515;48.766;9.176;2022-09-03T05:38:36;97964.78;;;17.62;62.66
49611;BME280;35515;48.766;9.176;2022-09-03T05:41:04;97979.03;;;17.59;63.04
49611;BME280;35515;48.766;9.176;2022-09-03T05:43:32;97975.19;;;17.60;62.92
49611;BME280;35515;48.766;9.176;2022-09-03T05:46:01;97974.69;;;17.68;62.75
49611;BME280;35515;48.766;9.176;2022-09-03T05:48:29;97978.06;;;17.80;62.30
49611;BME280;35515;48.766;9.176;2022-09-03T05:50:59;97973.94;;;17.78;62.67
49611;BME280;35515;48.766;9.176;2022-09-03T05:53:26;97981.84;;;17.69;62.71
49611;BME280;35515;48.766;9.176;2022-09-03T05:55:56;97980.28;;;17.83;62.73
49611;BME280;35515;48.766;9.176;2022-09-03T05:58:23;97983.03;;;17.83;62.55
49611;BME280;35515;48.766;9.176;2022-09-03T06:00:51;97990.94;;;17.80;63.05
49611;BME280;35515;48.766;9.176;2022-09-03T06:03:21;97985.38;;;17.69;63.47
49611;BME280;35515;48.766;9.176;2022-09-03T06:05:51;97983.25;;;17.77;63.56
49611;BME280;35515;48.766;9.176;2022-09-03T06:08:18;97983.78;;;17.74;63.83
49611;BME280;35515;48.766;9.176;2022-09-03T06:10:45;97975.75;;;17.62;64.08
49611;BME280;35515;48.766;9.176;2022-09-03T06:13:12;97989.41;;;17.94;63.09
49611;BME280;35515;48.766;9.176;2022-09-03T06:15:39;97980.22;;;17.73;63.62
49611;BME280;35515;48.766;9.176;2022-09-03T06:18:05;97990.09;;;17.74;63.57
49611;BME280;35515;48.766;9.176;2022-09-03T06:20:33;97990.38;;;17.78;63.72
49611;BME280;35515;48.766;9.176;2022-09-03T06:23:00;97984.00;;;17.67;64.12
49611;BME280;35515;48.766;9.176;2022-09-03T06:25:26;97994.97;;;17.67;64.33
49611;BME280;35515;48.766;9.176;2022-09-03T06:27:53;97995.31;;;17.76;64.00
49611;BME280;35515;48.766;9.176;2022-09-03T06:30:19;97995.34;;;17.81;63.93
49611;BME280;35515;48.766;9.176;2022-09-03T06:32:48;97988.50;;;17.83;63.89
49611;BME280;35515;48.766;9.176;2022-09-03T06:35:16;97999.09;;;18.12;63.28
49611;BME280;35515;48.766;9.176;2022-09-03T06:37:44;97998.78;;;18.03;63.13
49611;BME280;35515;48.766;9.176;2022-09-03T06:40:11;97988.41;;;18.11;64.30
49611;BME280;35515;48.766;9.176;2022-09-03T06:42:38;97988.94;;;18.08;64.40
49611;BME280;35515;48.766;9.176;2022-09-03T06:45:06;97997.44;;;18.06;64.30
49611;BME280;35515;48.766;9.176;2022-09-03T06:47:33;97994.69;;;18.11;65.33
49611;BME280;35515;48.766;9.176;2022-09-03T06:50:00;98005.13;;;18.14;65.07
49611;BME280;35515;48.766;9.176;2022-09-03T06:52:27;98007.31;;;18.12;65.02
49611;BME280;35515;48.766;9.176;2022-09-03T06:54:55;98001.31;;;18.15;65.00
49611;BME280;35515;48.766;9.176;2022-09-03T06:57:22;97996.34;;;18.12;65.23
49611;BME280;35515;48.766;9.176;2022-09-03T06:59:49;97991.97;;;18.16;65.31
49611;BME280;35515;48.766;9.176;2022-09-03T07:02:15;97999.16;;;18.23;65.66
49611;BME280;35515;48.766;9.176;2022-09-03T07:04:43;97991.72;;;18.23;64.91
49611;BME280;35515;48.766;9.176;2022-09-03T07:07:09;97996.41;;;18.23;65.59
49611;BME280;35515;48.766;9.176;2022-09-03T07:09:38;97987.94;;;18.34;65.74
49611;BME280;35515;48.766;9.176;2022-09-03T07:12:06;97992.69;;;18.60;65.29
49611;BME280;35515;48.766;9.176;2022-09-03T07:14:35;97996.22;;;18.45;66.10
49611;BME280;35515;48.766;9.176;2022-09-03T07:17:01;97997.31;;;18.44;66.66
49611;BME280;35515;48.766;9.176;2022-09-03T07:19:28;97990.72;;;18.50;67.15
49611;BME280;35515;48.766;9.176;2022-09-03T07:21:55;97998.16;;;18.54;67.19
49611;BME280;35515;48.766;9.176;2022-09-03T07:24:21;98003.91;;;18.48;67.25
49611;BME280;35515;48.766;9.176;2022-09-03T07:26:49;98006.06;;;18.46;67.78
49611;BME280;35515;48.766;9.176;2022-09-03T07:29:17;98000.88;;;18.44;68.56
49611;BME280;35515;48.766;9.176;2022-09-03T07:31:45;97995.94;;;18.41;67.58
49611;BME280;35515;48.766;9.176;2022-09-03T07:34:12;97988.25;;;18.38;67.97
49611;BME280;35515;48.766;9.176;2022-09-03T07:36:41;97987.97;;;18.40;68.14
49611;BME280;35515;48.766;9.176;2022-09-03T07:39:12;97998.41;;;18.48;67.56
49611;BME280;35515;48.766;9.176;2022-09-03T07:41:39;98002.53;;;18.50;67.38
49611;BME280;35515;48.766;9.176;2022-09-03T07:44:10;98003.66;;;18.54;68.09
49611;BME280;35515;48.766;9.176;2022-09-03T07:46:38;98003.66;;;18.54;67.94
49611;BME280;35515;48.766;9.176;2022-09-03T07:49:05;98005.31;;;18.55;68.13
49611;BME280;35515;48.766;9.176;2022-09-03T07:51:33;98011.34;;;18.58;68.67
49611;BME280;35515;48.766;9.176;2022-09-03T07:54:03;98018.78;;;18.62;68.24
49611;BME280;35515;48.766;9.176;2022-09-03T07:56:32;98021.25;;;18.69;68.48
49611;BME280;35515;48.766;9.176;2022-09-03T07:59:00;98014.69;;;18.75;67.83
49611;BME280;35515;48.766;9.176;2022-09-03T08:01:28;98021.81;;;18.76;68.65
49611;BME280;35515;48.766;9.176;2022-09-03T08:03:58;98017.16;;;18.82;68.83
49611;BME280;35515;48.766;9.176;2022-09-03T08:06:27;98025.38;;;18.82;68.74
49611;BME280;35515;48.766;9.176;2022-09-03T08:08:55;98013.59;;;18.81;68.54
49611;BME280;35515;48.766;9.176;2022-09-03T08:11:26;98017.16;;;18.87;68.77
49611;BME280;35515;48.766;9.176;2022-09-03T08:13:54;98025.69;;;18.85;68.70
49611;BME280;35515;48.766;9.176;2022-09-03T08:16:26;98020.53;;;18.89;68.71
49611;BME280;35515;48.766;9.176;2022-09-03T08:18:53;98022.44;;;18.94;68.66
49611;BME280;35515;48.766;9.176;2022-09-03T08:21:22;98033.19;;;19.11;68.96
49611;BME280;35515;48.766;9.176;2022-09-03T08:23:51;98024.13;;;19.10;68.79
49611;BME280;35515;48.766;9.176;2022-09-03T08:26:19;98014.50;;;19.08;68.68
49611;BME280;35515;48.766;9.176;2022-09-03T08:28:47;98026.03;;;19.10;68.99
49611;BME280;35515;48.766;9.176;2022-09-03T08:31:15;98026.03;;;19.15;69.04
49611;BME280;35515;48.766;9.176;2022-09-03T08:33:44;98032.94;;;19.28;68.71
49611;BME280;35515;48.766;9.176;2022-09-03T08:36:14;98025.22;;;19.30;68.86
49611;BME280;35515;48.766;9.176;2022-09-03T08:38:43;98030.19;;;19.33;68.86
49611;BME280;35515;48.766;9.176;2022-09-03T08:41:13;98031.28;;;19.37;68.44
49611;BME280;35515;48.766;9.176;2022-09-03T08:43:55;98021.94;;;19.43;68.68
49611;BME280;35515;48.766;9.176;2022-09-03T08:46:33;98020.84;;;19.54;68.67
49611;BME280;35515;48.766;9.176;2022-09-03T08:49:04;98031.00;;;19.59;67.86
49611;BME280;35515;48.766;9.176;2022-09-03T08:51:32;98036.78;;;19.63;67.62
49611;BME280;35515;48.766;9.176;2022-09-03T08:54:06;98041.16;;;19.69;66.81
49611;BME280;35515;48.766;9.176;2022-09-03T08:56:38;98040.59;;;19.67;66.18
49611;BME280;35515;48.766;9.176;2022-09-03T08:59:07;98046.41;;;19.81;65.72
49611;BME280;35515;48.766;9.176;2022-09-03T09:01:42;98042.00;;;19.85;65.50
49611;BME280;35515;48.766;9.176;2022-09-03T09:04:21;98045.00;;;19.94;65.26
49611;BME280;35515;48.766;9.176;2022-09-03T09:06:54;98041.44;;;19.93;65.53
49611;BME280;35515;48.766;9.176;2022-09-03T09:09:29;98044.19;;;19.88;65.75
49611;BME280;35515;48.766;9.176;2022-09-03T09:12:06;98046.13;;;19.87;65.92
49611;BME280;35515;48.766;9.176;2022-09-03T09:14:38;98054.63;;;19.96;65.77
49611;BME280;35515;48.766;9.176;2022-09-03T09:17:22;98066.97;;;20.09;64.66
49611;BME280;35515;48.766;9.176;2022-09-03T09:20:04;98068.09;;;20.03;64.35
49611;BME280;35515;48.766;9.176;2022-09-03T09:22:37;98061.50;;;20.04;64.14
49611;BME280;35515;48.766;9.176;2022-09-03T09:25:09;98062.06;;;19.91;64.61
49611;BME280;35515;48.766;9.176;2022-09-03T09:27:44;98063.97;;;19.95;64.61
49611;BME280;35515;48.766;9.176;2022-09-03T09:30:16;98067.81;;;19.79;65.64
49611;BME280;35515;48.766;9.176;2022-09-03T09:32:43;98060.41;;;20.00;65.08
49611;BME280;35515;48.766;9.176;2022-09-03T09:35:12;98056.56;;;20.01;64.77
49611;BME280;35515;48.766;9.176;2022-09-03T09:37:46;98057.94;;;19.98;65.04
49611;BME280;35515;48.766;9.176;2022-09-03T09:40:28;98058.22;;;20.02;64.57
49611;BME280;35515;48.766;9.176;2022-09-03T09:43:10;98051.56;;;20.13;64.31
49611;BME280;35515;48.766;9.176;2022-09-03T09:45:40;98057.56;;;20.31;63.37
49611;BME280;35515;48.766;9.176;2022-09-03T09:48:12;98050.38;;;20.40;62.92
49611;BME280;35515;48.766;9.176;2022-09-03T09:50:40;98047.94;;;20.28;63.49
49611;BME280;35515;48.766;9.176;2022-09-03T09:53:09;98043.22;;;20.44;62.51
49611;BME280;35515;48.766;9.176;2022-09-03T09:55:53;98040.75;;;20.43;62.82
49611;BME280;35515;48.766;9.176;2022-09-03T09:58:21;98042.13;;;20.40;62.75
49611;BME280;35515;48.766;9.176;2022-09-03T10:01:00;98046.53;;;20.41;63.03
49611;BME280;35515;48.766;9.176;2022-09-03T10:03:31;98044.88;;;20.45;62.66
49611;BME280;35515;48.766;9.176;2022-09-03T10:06:06;98054.75;;;20.57;62.37
49611;BME280;35515;48.766;9.176;2022-09-03T10:08:51;98050.06;;;20.52;61.95
49611;BME280;35515;48.766;9.176;2022-09-03T10:11:20;98039.28;;;20.66;61.32
49611;BME280;35515;48.766;9.176;2022-09-03T10:13:52;98054.75;;;20.57;61.51
49611;BME280;35515;48.766;9.176;2022-09-03T10:16:22;98056.38;;;20.52;61.77
49611;BME280;35515;48.766;9.176;2022-09-03T10:18:58;98052.00;;;20.57;61.61
49611;BME280;35515;48.766;9.176;2022-09-03T10:21:39;98052.00;;;20.57;61.48
49611;BME280;35515;48.766;9.176;2022-09-03T10:24:20;98048.41;;;20.51;61.45
49611;BME280;35515;48.766;9.176;2022-09-03T10:26:53;98056.94;;;20.60;61.11
49611;BME280;35515;48.766;9.176;2022-09-03T10:29:23;98054.97;;;20.65;60.92
49611;BME280;35515;48.766;9.176;2022-09-03T10:32:02;98047.34;;;20.47;61.64
49611;BME280;35515;48.766;9.176;2022-09-03T10:34:37;98042.69;;;20.42;61.60
49611;BME280;35515;48.766;9.176;2022-09-03T10:37:16;98042.13;;;20.40;61.44
49611;BME280;35515;48.766;9.176;2022-09-03T10:39:57;98043.19;;;20.54;61.04
49611;BME280;35515;48.766;9.176;2022-09-03T10:42:38;98049.25;;;20.51;61.02
49611;BME280;35515;48.766;9.176;2022-09-03T10:45:17;98056.63;;;20.66;60.35
49611;BME280;35515;48.766;9.176;2022-09-03T10:48:06;98050.88;;;20.58;60.61
49611;BME280;35515;48.766;9.176;2022-09-03T10:50:45;98050.63;;;20.54;60.69
49611;BME280;35515;48.766;9.176;2022-09-03T10:53:23;98047.31;;;20.57;60.87
49611;BME280;35515;48.766;9.176;2022-09-03T10:55:59;98053.91;;;20.61;60.82
49611;BME280;35515;48.766;9.176;2022-09-03T10:58:45;98037.66;;;20.70;60.44
49611;BME280;35515;48.766;9.176;2022-09-03T11:01:18;98034.91;;;20.70;60.02
49611;BME280;35515;48.766;9.176;2022-09-03T11:03:48;98026.88;;;20.79;60.08
49611;BME280;35515;48.766;9.176;2022-09-03T11:06:21;98023.31;;;20.73;60.11
49611;BME280;35515;48.766;9.176;2022-09-03T11:08:54;98026.28;;;20.82;59.51
49611;BME280;35515;48.766;9.176;2022-09-03T11:11:28;98021.63;;;20.82;59.41
49611;BME280;35515;48.766;9.176;2022-09-03T11:14:02;98016.94;;;20.78;60.05
49611;BME280;35515;48.766;9.176;2022-09-03T11:16:36;98017.50;;;20.80;59.87
49611;BME280;35515;48.766;9.176;2022-09-03T11:19:08;98021.63;;;20.82;59.88
49611;BME280;35515;48.766;9.176;2022-09-03T11:21:37;98012.25;;;20.83;59.95
49611;BME280;35515;48.766;9.176;2022-09-03T11:24:11;98010.59;;;20.87;59.93
49611;BME280;35515;48.766;9.176;2022-09-03T11:26:39;98006.19;;;20.86;59.74
49611;BME280;35515;48.766;9.176;2022-09-03T11:29:12;98001.75;;;20.91;59.84
49611;BME280;35515;48.766;9.176;2022-09-03T11:31:51;97999.00;;;20.91;60.08
49611;BME280;35515;48.766;9.176;2022-09-03T11:34:28;98002.00;;;20.94;59.84
49611;BME280;35515;48.766;9.176;2022-09-03T11:37:05;98010.03;;;20.85;59.33
49611;BME280;35515;48.766;9.176;2022-09-03T11:39:34;98001.25;;;20.83;60.04
49611;BME280;35515;48.766;9.176;2022-09-03T11:42:03;97992.66;;;20.90;60.11
49611;BME280;35515;48.766;9.176;2022-09-03T11:44:37;97995.44;;;20.90;60.07
49611;BME280;35515;48.766;9.176;2022-09-03T11:47:14;97987.19;;;20.85;60.16
49611;BME280;35515;48.766;9.176;2022-09-03T11:49:46;98002.84;;;20.90;59.84
49611;BME280;35515;48.766;9.176;2022-09-03T11:52:25;98012.78;;;20.85;59.97
49611;BME280;35515;48.766;9.176;2022-09-03T11:54:52;98017.19;;;20.86;60.25
49611;BME280;35515;48.766;9.176;2022-09-03T11:57:24;98015.00;;;20.83;60.06
49611;BME280;35515;48.766;9.176;2022-09-03T11:59:54;98022.19;;;20.79;60.50
49611;BME280;35515;48.766;9.176;2022-09-03T12:02:34;98051.34;;;20.80;60.84
49611;BME280;35515;48.766;9.176;2022-09-03T12:05:13;98041.22;;;20.70;61.29
49611;BME280;35515;48.766;9.176;2022-09-03T12:07:55;98042.56;;;20.68;61.42
49611;BME280;35515;48.766;9.176;2022-09-03T12:10:34;98040.41;;;20.70;61.77
49611;BME280;35515;48.766;9.176;2022-09-03T12:13:25;98052.50;;;20.64;62.38
49611;BME280;35515;48.766;9.176;2022-09-03T12:16:11;98053.03;;;20.71;63.74
49611;BME280;35515;48.766;9.176;2022-09-03T12:18:41;98037.88;;;20.68;64.72
49611;BME280;35515;48.766;9.176;2022-09-03T12:21:10;98043.69;;;20.67;65.45
49611;BME280;35515;48.766;9.176;2022-09-03T12:23:40;98047.84;;;20.59;66.94
49611;BME280;35515;48.766;9.176;2022-09-03T12:26:10;98044.78;;;20.66;67.67
49611;BME280;35515;48.766;9.176;2022-09-03T12:28:39;98056.94;;;20.60;68.42
49611;BME280;35515;48.766;9.176;2022-09-03T12:31:13;98066.78;;;20.66;69.93
49611;BME280;35515;48.766;9.176;2022-09-03T12:33:46;98075.06;;;20.71;71.30
49611;BME280;35515;48.766;9.176;2022-09-03T12:36:13;98081.44;;;20.51;71.74
49611;BME280;35515;48.766;9.176;2022-09-03T12:38:40;98092.25;;;20.11;75.63
49611;BME280;35515;48.766;9.176;2022-09-03T12:41:19;98096.66;;;20.12;76.11
49611;BME280;35515;48.766;9.176;2022-09-03T12:43:50;98098.59;;;20.01;78.47
49611;BME280;35515;48.766;9.176;2022-09-03T12:46:21;98107.94;;;20.21;75.05
49611;BME280;35515;48.766;9.176;2022-09-03T12:48:52;98104.38;;;19.95;76.57
49611;BME280;35515;48.766;9.176;2022-09-03T12:51:19;98099.41;;;19.71;77.01
49611;BME280;35515;48.766;9.176;2022-09-03T12:53:47;98095.56;;;19.72;78.00
49611;BME280;35515;48.766;9.176;2022-09-03T12:56:16;98102.72;;;19.58;79.79
49611;BME280;35515;48.766;9.176;2022-09-03T12:58:47;98099.97;;;19.42;81.12
49611;BME280;35515;48.766;9.176;2022-09-03T13:01:20;98111.47;;;19.39;83.29
49611;BME280;35515;48.766;9.176;2022-09-03T13:03:51;98115.59;;;19.26;84.07
49611;BME280;35515;48.766;9.176;2022-09-03T13:06:24;98109.81;;;19.28;84.44
49611;BME280;35515;48.766;9.176;2022-09-03T13:08:54;98104.56;;;19.11;86.16
49611;BME280;35515;48.766;9.176;2022-09-03T13:11:23;98101.84;;;19.21;84.70
49611;BME280;35515;48.766;9.176;2022-09-03T13:13:53;98110.81;;;18.91;87.54
49611;BME280;35515;48.766;9.176;2022-09-03T13:19:26;98091.38;;;19.02;86.39
49611;BME280;35515;48.766;9.176;2022-09-03T13:22:03;98093.84;;;19.09;86.73
49611;BME280;35515;48.766;9.176;2022-09-03T13:25:02;98080.13;;;19.09;86.18